Tuesday, April 24, 2018, 4:33 AM EDT
Back to Local

KGNR, Greenville

Location: Greenville, ME, United States Lat: 45.467
Local Time: 4:33 AM EDT ( 8:33 GMT) Lon: -69.583
Time Zone: US/Eastern Elev: 1400 ft

Show me the last for .
Show Decoded

2018-04-24 03:56 METAR KGNR 240756Z AUTO 15003KT 05/M07 A3025 RMK AO1 SLP251 T00501067 =
2018-04-24 02:56 METAR KGNR 240656Z AUTO 00000KT 03/M06 A3025 RMK AO1 SLP255 T00281061 =
2018-04-24 01:56 METAR KGNR 240556Z AUTO 00000KT 04/M06 A3026 RMK AO1 SLP258 T00391061 10111
                 20039 58010 =
2018-04-24 00:56 METAR KGNR 240456Z AUTO 18003KT 06/M06 A3028 RMK AO1 SLP262 T00611061 401441011
                 =
2018-04-23 23:56 METAR KGNR 240356Z AUTO 19003KT 06/M07 A3029 RMK AO1 SLP267 T00611067 =
2018-04-23 22:56 METAR KGNR 240256Z AUTO 19004KT 08/M11 A3030 RMK AO1 SLP269 T00831111 50002 =
2018-04-23 21:56 METAR KGNR 240156Z AUTO 00000KT 06/M08 A3030 RMK AO1 SLP271 T00611083 =
2018-04-23 20:56 METAR KGNR 240056Z AUTO 00000KT 09/M12 A3030 RMK AO1 SLP271 T00941122 =
2018-04-23 19:56 METAR KGNR 232356Z AUTO 00000KT 10/M08 A3029 RMK AO1 SLP268 T01001083 10144
                 20100 55006 =
2018-04-23 18:56 METAR KGNR 232256Z AUTO 31003KT 13/M12 A3028 RMK AO1 SLP266 T01331117 =
2018-04-23 17:56 METAR KGNR 232156Z AUTO 30004KT 14/M11 A3029 RMK AO1 SLP266 T01391106 =
2018-04-23 16:56 METAR KGNR 232056Z AUTO VRB04KT 14/M11 A3031 RMK AO1 SLP273 T01441111 56016 =
2018-04-23 15:56 METAR KGNR 231956Z AUTO VRB06KT 14/M10 A3032 RMK AO1 SLP276 T01441100 =
2018-04-23 14:56 METAR KGNR 231856Z AUTO 31006KT 14/M10 A3034 RMK AO1 SLP283 T01391100 =
2018-04-23 13:56 METAR KGNR 231756Z AUTO 33009KT 13/M10 A3036 RMK AO1 SLP290 T01281100 10128
                 20044 56016 =
2018-04-23 12:56 METAR KGNR 231656Z AUTO 30007KT 12/M10 A3037 RMK AO1 SLP295 T01221100 =
2018-04-23 11:56 METAR KGNR 231556Z AUTO 31007KT 11/M09 A3039 RMK AO1 SLP302 T01061094 =
2018-04-23 10:56 METAR KGNR 231456Z AUTO 33009KT 09/M09 A3041 RMK AO1 SLP309 T00891089 50001 =
2018-04-23 09:56 METAR KGNR 231356Z AUTO 34006KT 08/M09 A3041 RMK AO1 SLP312 T00781094 =
2018-04-23 08:56 METAR KGNR 231256Z AUTO 32007KT 06/M09 A3041 RMK AO1 SLP313 T00611094 =
2018-04-23 07:56 METAR KGNR 231156Z AUTO 32003KT 04/M09 A3040 RMK AO1 SLP309 T00441089 10044
                 21011 53018 =
2018-04-23 06:56 METAR KGNR 231056Z AUTO 00000KT 01/M09 A3038 RMK AO1 SLP303 T00111089 =
2018-04-23 05:56 METAR KGNR 230956Z AUTO 35005KT 01/M10 A3036 RMK AO1 SLP294 T00061100 =
2018-04-23 04:56 METAR KGNR 230856Z AUTO VRB03KT 02/M11 A3035 RMK AO1 SLP289 T00221106 53008 =

Support USWX by starting your Amazon purchase here.